Time;durP1;ratioP1;P1;durP2;ratioP2;P2;SDS_P1;SDS_P2;PMS_P1;PMS_P2;Temp;Humidity;BMP_temperature;BMP_pressure;BME280_temperature;BME280_humidity;BME280_pressure;Samples;Min_cycle;Max_cycle;Signal;HPM_P1;HPM_P2
2021/10/14 00:01:21;;;;;;;14.50;9.85;;;;;;;;;;5095875;28;20035;-75
2021/10/14 00:03:47;;;;;;;14.77;9.30;;;;;;;;;;5096431;28;20354;-75
2021/10/14 00:06:13;;;;;;;16.80;10.70;;;;;;;;;;5094577;28;20381;-75
2021/10/14 00:08:39;;;;;;;13.77;9.40;;;;;;;;;;5095360;28;20012;-75
2021/10/14 00:11:06;;;;;;;13.77;9.32;;;;;;;;;;5095921;28;20051;-75
2021/10/14 00:13:32;;;;;;;13.77;9.63;;;;;;;;;;5095738;28;20086;-75
2021/10/14 00:15:58;;;;;;;12.45;8.38;;;;;;;;;;5095250;28;20024;-75
2021/10/14 00:18:24;;;;;;;14.90;9.15;;;;;;;;;;5095546;28;20028;-75
2021/10/14 00:20:51;;;;;;;14.48;9.63;;;;;;;;;;5095319;28;20500;-75
2021/10/14 00:23:17;;;;;;;11.40;7.93;;;;;;;;;;5095172;28;20031;-75
2021/10/14 00:25:43;;;;;;;11.55;7.70;;;;;;;;;;5095478;28;20028;-75
2021/10/14 00:28:09;;;;;;;12.00;8.23;;;;;;;;;;5095340;28;20027;-75
2021/10/14 00:30:35;;;;;;;11.25;7.45;;;;;;;;;;5095003;28;20056;-76
2021/10/14 00:33:02;;;;;;;15.02;8.60;;;;;;;;;;5095371;28;20475;-75
2021/10/14 00:35:28;;;;;;;12.45;7.32;;;;;;;;;;5095247;28;20032;-75
2021/10/14 00:37:54;;;;;;;12.80;7.10;;;;;;;;;;5094807;28;20016;-75
2021/10/14 00:40:20;;;;;;;10.85;7.25;;;;;;;;;;5095531;28;20078;-75
2021/10/14 00:42:47;;;;;;;11.10;7.00;;;;;;;;;;5095189;28;20031;-75
2021/10/14 00:45:13;;;;;;;10.48;6.07;;;;;;;;;;5093766;28;20092;-73
2021/10/14 00:47:39;;;;;;;14.98;7.13;;;;;;;;;;5095199;28;20172;-75
2021/10/14 00:50:06;;;;;;;10.82;6.95;;;;;;;;;;5094920;28;20035;-75
2021/10/14 00:52:36;;;;;;;8.50;6.15;;;;;;;;;;5094898;28;20024;-75
2021/10/14 00:55:03;;;;;;;8.88;6.53;;;;;;;;;;5094919;28;20038;-75
2021/10/14 00:57:29;;;;;;;9.27;6.30;;;;;;;;;;5094844;28;20352;-75
2021/10/14 00:59:56;;;;;;;8.70;5.45;;;;;;;;;;5094677;28;20024;-75
2021/10/14 01:02:22;;;;;;;9.27;6.40;;;;;;;;;;5093522;28;20028;-75
2021/10/14 01:04:48;;;;;;;10.70;6.10;;;;;;;;;;5093044;28;20036;-74
2021/10/14 01:07:15;;;;;;;11.50;7.03;;;;;;;;;;5094699;28;20479;-74
2021/10/14 01:09:41;;;;;;;8.00;5.63;;;;;;;;;;5094671;28;20028;-74
2021/10/14 01:12:07;;;;;;;10.52;6.47;;;;;;;;;;5094173;28;20119;-74
2021/10/14 01:14:34;;;;;;;10.90;6.88;;;;;;;;;;5094556;28;20052;-74
2021/10/14 01:17:00;;;;;;;10.55;6.50;;;;;;;;;;5093274;28;20028;-74
2021/10/14 01:19:27;;;;;;;11.27;6.38;;;;;;;;;;5094129;28;20024;-74
2021/10/14 01:21:53;;;;;;;11.43;6.80;;;;;;;;;;5094243;28;20056;-74
2021/10/14 01:24:20;;;;;;;11.68;6.70;;;;;;;;;;5094345;28;20020;-74
2021/10/14 01:26:46;;;;;;;10.82;6.88;;;;;;;;;;5094034;28;20491;-74
2021/10/14 01:29:13;;;;;;;11.10;6.65;;;;;;;;;;5094132;28;20024;-74
2021/10/14 01:31:39;;;;;;;11.18;6.63;;;;;;;;;;5092736;28;20028;-75
2021/10/14 01:34:05;;;;;;;9.73;6.68;;;;;;;;;;5093889;28;20099;-75
2021/10/14 01:36:32;;;;;;;9.95;6.20;;;;;;;;;;5094148;28;20020;-74
2021/10/14 01:38:58;;;;;;;11.70;7.35;;;;;;;;;;5093883;28;20024;-74
2021/10/14 01:41:24;;;;;;;13.82;7.38;;;;;;;;;;5093966;28;20115;-74
2021/10/14 01:43:51;;;;;;;11.32;7.43;;;;;;;;;;5094195;28;20128;-74
2021/10/14 01:46:17;;;;;;;10.60;7.07;;;;;;;;;;5093567;28;20040;-74
2021/10/14 01:48:43;;;;;;;9.63;7.00;;;;;;;;;;5093982;28;20030;-74
2021/10/14 01:51:10;;;;;;;11.95;6.60;;;;;;;;;;5093932;28;20429;-74
2021/10/14 01:53:37;;;;;;;12.38;6.45;;;;;;;;;;5093610;28;20028;-74
2021/10/14 01:56:03;;;;;;;10.85;7.15;;;;;;;;;;5093787;28;20328;-74
2021/10/14 01:58:30;;;;;;;11.40;7.65;;;;;;;;;;5094022;28;20030;-74
2021/10/14 02:00:56;;;;;;;11.50;6.97;;;;;;;;;;5092008;28;20051;-74
2021/10/14 02:03:22;;;;;;;10.60;7.38;;;;;;;;;;5093714;28;20100;-74
2021/10/14 02:05:48;;;;;;;9.95;7.45;;;;;;;;;;5093819;28;20024;-75
2021/10/14 02:08:14;;;;;;;11.93;6.80;;;;;;;;;;5093240;28;20138;-74
2021/10/14 02:10:41;;;;;;;12.55;7.13;;;;;;;;;;5094135;28;20020;-74
2021/10/14 02:13:08;;;;;;;13.65;8.07;;;;;;;;;;5092346;28;20031;-74
2021/10/14 02:15:34;;;;;;;11.75;7.65;;;;;;;;;;5093165;28;20064;-74
2021/10/14 02:18:00;;;;;;;10.82;7.13;;;;;;;;;;5092277;28;20039;-74
2021/10/14 02:20:26;;;;;;;9.82;7.20;;;;;;;;;;5093285;28;20044;-73
2021/10/14 02:22:53;;;;;;;12.20;7.40;;;;;;;;;;5093137;28;20099;-74
2021/10/14 02:25:20;;;;;;;12.00;7.82;;;;;;;;;;5093528;28;20082;-74
2021/10/14 02:27:47;;;;;;;12.90;7.55;;;;;;;;;;5093529;28;20024;-74
2021/10/14 02:30:13;;;;;;;11.50;7.90;;;;;;;;;;5093109;28;20050;-74
2021/10/14 02:32:40;;;;;;;12.65;8.77;;;;;;;;;;5093691;28;20085;-74
2021/10/14 02:35:07;;;;;;;11.13;7.28;;;;;;;;;;5093452;28;20073;-74
2021/10/14 02:37:33;;;;;;;11.38;7.80;;;;;;;;;;5093013;28;20096;-74
2021/10/14 02:39:59;;;;;;;10.40;7.50;;;;;;;;;;5093336;28;20016;-74
2021/10/14 02:42:26;;;;;;;11.07;7.25;;;;;;;;;;5094569;28;20028;-74
2021/10/14 02:44:52;;;;;;;10.85;7.35;;;;;;;;;;5097484;28;20480;-74
2021/10/14 02:47:18;;;;;;;10.95;7.70;;;;;;;;;;5097610;28;20545;-74
2021/10/14 02:49:44;;;;;;;10.50;7.90;;;;;;;;;;5096959;28;20019;-74
2021/10/14 02:52:10;;;;;;;11.98;7.80;;;;;;;;;;5097595;28;20379;-74
2021/10/14 02:54:37;;;;;;;9.82;7.00;;;;;;;;;;5096051;28;20025;-74
2021/10/14 02:57:03;;;;;;;12.38;7.35;;;;;;;;;;5096919;28;20628;-74
2021/10/14 02:59:29;;;;;;;14.88;8.18;;;;;;;;;;5097204;28;20020;-74
2021/10/14 03:01:55;;;;;;;11.48;8.35;;;;;;;;;;5097027;28;20032;-74
2021/10/14 03:04:22;;;;;;;10.48;7.57;;;;;;;;;;5096698;28;20024;-74
2021/10/14 03:06:48;;;;;;;12.15;7.55;;;;;;;;;;5095755;28;20504;-74
2021/10/14 03:09:14;;;;;;;13.52;7.13;;;;;;;;;;5096992;28;20024;-74
2021/10/14 03:11:40;;;;;;;9.75;6.82;;;;;;;;;;5095274;28;20046;-74
2021/10/14 03:14:07;;;;;;;12.50;7.82;;;;;;;;;;5096886;28;20103;-75
2021/10/14 03:16:33;;;;;;;15.98;9.50;;;;;;;;;;5096871;28;20028;-74
2021/10/14 03:18:59;;;;;;;11.23;7.03;;;;;;;;;;5095195;28;20112;-74
2021/10/14 03:21:25;;;;;;;9.13;6.43;;;;;;;;;;5095219;28;20044;-74
2021/10/14 03:23:51;;;;;;;9.85;7.20;;;;;;;;;;5096697;28;20490;-74
2021/10/14 03:26:17;;;;;;;9.77;6.97;;;;;;;;;;5095015;28;20114;-74
2021/10/14 03:28:44;;;;;;;13.88;7.38;;;;;;;;;;5096582;28;20020;-74
2021/10/14 03:31:10;;;;;;;11.65;7.53;;;;;;;;;;5095328;28;20444;-75
2021/10/14 03:33:37;;;;;;;10.13;6.82;;;;;;;;;;5096161;28;20384;-74
2021/10/14 03:36:04;;;;;;;11.75;7.30;;;;;;;;;;5096656;28;20027;-75
2021/10/14 03:38:30;;;;;;;10.10;6.60;;;;;;;;;;5096479;28;20024;-75
2021/10/14 03:40:56;;;;;;;11.88;7.82;;;;;;;;;;5095041;28;20544;-75
2021/10/14 03:43:22;;;;;;;10.80;7.28;;;;;;;;;;5096641;28;20032;-75
2021/10/14 03:45:49;;;;;;;12.00;7.70;;;;;;;;;;5095898;28;20112;-75
2021/10/14 03:48:15;;;;;;;11.73;7.75;;;;;;;;;;5096286;28;20024;-74
2021/10/14 03:50:41;;;;;;;11.57;7.18;;;;;;;;;;5096215;28;20027;-74
2021/10/14 03:53:09;;;;;;;12.45;7.85;;;;;;;;;;5095266;28;20052;-74
2021/10/14 03:55:35;;;;;;;11.00;7.22;;;;;;;;;;5096479;28;20026;-74
2021/10/14 03:58:02;;;;;;;12.32;8.13;;;;;;;;;;5097645;28;20073;-75
2021/10/14 04:00:28;;;;;;;14.27;8.18;;;;;;;;;;5101647;28;20028;-74
2021/10/14 04:02:54;;;;;;;14.00;7.80;;;;;;;;;;5101052;28;20020;-74
2021/10/14 04:05:20;;;;;;;11.90;7.80;;;;;;;;;;5096143;28;20190;-74
2021/10/14 04:07:46;;;;;;;14.52;8.82;;;;;;;;;;5095627;28;20081;-75
2021/10/14 04:10:14;;;;;;;12.10;8.00;;;;;;;;;;5095921;28;20024;-74
2021/10/14 04:12:41;;;;;;;11.60;7.75;;;;;;;;;;5095800;28;20022;-74
2021/10/14 04:15:07;;;;;;;13.02;7.43;;;;;;;;;;5094095;28;20062;-74
2021/10/14 04:17:34;;;;;;;11.57;7.95;;;;;;;;;;5095695;28;20028;-74
2021/10/14 04:20:00;;;;;;;12.20;7.15;;;;;;;;;;5095406;28;20072;-74
2021/10/14 04:22:27;;;;;;;11.05;6.90;;;;;;;;;;5095355;28;20078;-74
2021/10/14 04:24:54;;;;;;;10.77;7.22;;;;;;;;;;5095495;28;20047;-74
2021/10/14 04:27:20;;;;;;;11.80;7.35;;;;;;;;;;5095545;28;20035;-74
2021/10/14 04:29:46;;;;;;;11.45;7.00;;;;;;;;;;5095014;28;20154;-74
2021/10/14 04:32:12;;;;;;;10.13;7.10;;;;;;;;;;5095380;28;20490;-74
2021/10/14 04:34:39;;;;;;;10.95;6.22;;;;;;;;;;5095334;28;20028;-74
2021/10/14 04:37:08;;;;;;;9.25;6.03;;;;;;;;;;5094906;28;20027;-74
2021/10/14 04:39:35;;;;;;;9.77;6.60;;;;;;;;;;5095213;28;20031;-74
2021/10/14 04:42:02;;;;;;;8.63;5.78;;;;;;;;;;5095054;28;20429;-74
2021/10/14 04:44:28;;;;;;;9.55;5.97;;;;;;;;;;5095215;28;20047;-74
2021/10/14 04:46:54;;;;;;;9.10;6.05;;;;;;;;;;5093863;28;20024;-74
2021/10/14 04:49:20;;;;;;;7.72;5.40;;;;;;;;;;5095002;28;20016;-74
2021/10/14 04:51:47;;;;;;;8.07;5.05;;;;;;;;;;5095039;28;20024;-74
2021/10/14 04:54:13;;;;;;;8.50;5.00;;;;;;;;;;5095021;28;20106;-74
2021/10/14 04:56:39;;;;;;;8.32;4.70;;;;;;;;;;5094466;28;20024;-74
2021/10/14 04:59:05;;;;;;;8.30;4.65;;;;;;;;;;5095109;28;20476;-74
2021/10/14 05:01:31;;;;;;;10.60;5.35;;;;;;;;;;5094720;28;20036;-74
2021/10/14 05:03:57;;;;;;;7.95;5.82;;;;;;;;;;5094249;28;20020;-74
2021/10/14 05:06:24;;;;;;;10.65;4.82;;;;;;;;;;5094274;28;20035;-74
2021/10/14 05:08:50;;;;;;;9.15;5.50;;;;;;;;;;5094650;28;20028;-74
2021/10/14 05:11:16;;;;;;;9.25;5.68;;;;;;;;;;5092985;28;20480;-75
2021/10/14 05:13:42;;;;;;;11.98;6.45;;;;;;;;;;5094651;28;20494;-73
2021/10/14 05:16:08;;;;;;;13.80;7.47;;;;;;;;;;5094223;28;20028;-76
2021/10/14 05:18:35;;;;;;;18.15;8.02;;;;;;;;;;5091239;28;20042;-69
2021/10/14 05:21:01;;;;;;;19.13;7.97;;;;;;;;;;5094091;28;20077;-69
2021/10/14 05:23:28;;;;;;;18.38;9.85;;;;;;;;;;5083145;28;20021;-69
2021/10/14 05:25:54;;;;;;;29.08;11.68;;;;;;;;;;5073453;28;20019;-70
2021/10/14 05:28:21;;;;;;;17.38;8.50;;;;;;;;;;5073995;28;20032;-70
2021/10/14 05:30:47;;;;;;;20.30;9.63;;;;;;;;;;5073853;28;20036;-71
2021/10/14 05:33:14;;;;;;;21.08;9.55;;;;;;;;;;5077486;28;20081;-68
2021/10/14 05:35:40;;;;;;;15.88;8.60;;;;;;;;;;5091553;28;20012;-69
2021/10/14 05:38:06;;;;;;;14.70;7.10;;;;;;;;;;5090773;28;20422;-69
2021/10/14 05:40:33;;;;;;;10.00;5.65;;;;;;;;;;5093537;28;20028;-69
2021/10/14 05:42:59;;;;;;;17.52;7.00;;;;;;;;;;5090134;28;20077;-69
2021/10/14 05:45:25;;;;;;;9.27;5.95;;;;;;;;;;5090693;28;20024;-68
2021/10/14 05:47:51;;;;;;;10.13;6.03;;;;;;;;;;5089338;28;20078;-69
2021/10/14 05:50:18;;;;;;;10.02;6.07;;;;;;;;;;5092902;28;20045;-70
2021/10/14 05:52:44;;;;;;;9.77;6.03;;;;;;;;;;5091543;28;20024;-68
2021/10/14 05:55:10;;;;;;;8.73;5.35;;;;;;;;;;5090473;28;20026;-69
2021/10/14 05:57:36;;;;;;;10.15;6.18;;;;;;;;;;5092690;28;20145;-69
2021/10/14 06:00:04;;;;;;;12.32;7.65;;;;;;;;;;5091358;28;20487;-68
2021/10/14 06:02:30;;;;;;;9.75;6.60;;;;;;;;;;5096127;28;20035;-76
2021/10/14 06:04:56;;;;;;;10.63;6.20;;;;;;;;;;5093260;28;20042;-78
2021/10/14 06:07:22;;;;;;;8.00;5.43;;;;;;;;;;5090779;28;20052;-72
2021/10/14 06:09:48;;;;;;;9.63;5.63;;;;;;;;;;5092884;28;20096;-72
2021/10/14 06:12:15;;;;;;;10.38;6.07;;;;;;;;;;5093056;28;20020;-73
2021/10/14 06:14:41;;;;;;;8.52;5.45;;;;;;;;;;5092477;28;20089;-74
2021/10/14 06:17:07;;;;;;;7.88;5.57;;;;;;;;;;5090632;28;20066;-74
2021/10/14 06:19:34;;;;;;;10.48;6.47;;;;;;;;;;5092826;28;20028;-75
2021/10/14 06:22:00;;;;;;;11.57;6.75;;;;;;;;;;5088940;28;20129;-74
2021/10/14 06:24:26;;;;;;;11.27;6.07;;;;;;;;;;5092395;28;20518;-74
2021/10/14 06:26:52;;;;;;;14.07;7.15;;;;;;;;;;5092946;28;20028;-76
2021/10/14 06:29:18;;;;;;;12.07;7.15;;;;;;;;;;5092729;28;20024;-76
2021/10/14 06:31:44;;;;;;;11.63;6.00;;;;;;;;;;5090270;28;20016;-74
2021/10/14 06:34:11;;;;;;;16.70;8.57;;;;;;;;;;5092015;28;20040;-74
2021/10/14 06:36:37;;;;;;;12.25;7.22;;;;;;;;;;5092361;28;20022;-76
2021/10/14 06:39:03;;;;;;;10.40;6.25;;;;;;;;;;5092223;28;20036;-75
2021/10/14 06:41:29;;;;;;;11.48;7.78;;;;;;;;;;5089443;28;20069;-74
2021/10/14 06:43:56;;;;;;;9.68;6.40;;;;;;;;;;5089687;28;20050;-74
2021/10/14 06:46:22;;;;;;;13.73;7.35;;;;;;;;;;5084715;28;20496;-73
2021/10/14 06:48:48;;;;;;;11.32;8.10;;;;;;;;;;5106487;28;20031;-74
2021/10/14 06:51:15;;;;;;;11.15;7.22;;;;;;;;;;5102054;28;20491;-75
2021/10/14 07:06:31;;;;;;;11.32;6.68;;;;;;;;;;5089257;28;20451;-70
2021/10/14 07:08:57;;;;;;;10.07;6.20;;;;;;;;;;5089394;28;20039;-68
2021/10/14 07:11:30;;;;;;;10.85;6.32;;;;;;;;;;5084312;28;20687;-70
2021/10/14 07:13:56;;;;;;;10.63;5.57;;;;;;;;;;5068138;28;20028;-71
2021/10/14 07:16:22;;;;;;;11.50;7.00;;;;;;;;;;5065743;28;20432;-70
2021/10/14 07:18:48;;;;;;;16.13;8.93;;;;;;;;;;5081276;28;20024;-70
2021/10/14 07:21:15;;;;;;;19.02;11.73;;;;;;;;;;5087747;28;20485;-71
2021/10/14 07:23:41;;;;;;;16.50;9.68;;;;;;;;;;5087479;28;20111;-71
2021/10/14 07:26:07;;;;;;;17.38;9.98;;;;;;;;;;5087528;28;20442;-69
2021/10/14 07:28:33;;;;;;;15.93;9.52;;;;;;;;;;5088662;28;20549;-73
2021/10/14 07:31:00;;;;;;;13.70;8.68;;;;;;;;;;5089665;28;20048;-74
2021/10/14 07:33:26;;;;;;;15.43;8.90;;;;;;;;;;5088991;28;20387;-71
2021/10/14 07:35:52;;;;;;;10.02;7.47;;;;;;;;;;5088633;28;20032;-70
2021/10/14 07:38:18;;;;;;;14.35;9.38;;;;;;;;;;5084284;28;20020;-70
2021/10/14 07:40:45;;;;;;;14.35;8.82;;;;;;;;;;5077937;28;20082;-70
2021/10/14 07:43:13;;;;;;;25.45;14.43;;;;;;;;;;5066789;28;20599;-68
2021/10/14 07:45:40;;;;;;;14.15;10.20;;;;;;;;;;5066354;28;20017;-69
2021/10/14 07:48:07;;;;;;;18.00;10.93;;;;;;;;;;5068186;28;20048;-67
2021/10/14 07:50:34;;;;;;;19.17;9.55;;;;;;;;;;5067439;28;20746;-72
2021/10/14 07:53:00;;;;;;;12.73;8.13;;;;;;;;;;5069809;28;20029;-67
2021/10/14 07:55:26;;;;;;;13.95;8.75;;;;;;;;;;5075849;28;20067;-70
2021/10/14 07:57:53;;;;;;;15.15;8.38;;;;;;;;;;5072265;28;20009;-70
2021/10/14 08:00:19;;;;;;;16.77;9.63;;;;;;;;;;5078212;28;20025;-71
2021/10/14 08:02:46;;;;;;;15.63;10.10;;;;;;;;;;5078077;28;20028;-71
2021/10/14 08:05:12;;;;;;;17.90;10.63;;;;;;;;;;5077790;28;20363;-71
2021/10/14 08:07:41;;;;;;;22.35;13.50;;;;;;;;;;5069972;28;20036;-69
2021/10/14 08:10:08;;;;;;;16.02;9.50;;;;;;;;;;5069101;28;20027;-69
2021/10/14 08:12:34;;;;;;;11.15;7.45;;;;;;;;;;5068316;28;20048;-71
2021/10/14 08:15:00;;;;;;;14.20;8.13;;;;;;;;;;5062738;28;20028;-71
2021/10/14 08:17:27;;;;;;;11.25;7.38;;;;;;;;;;5071369;28;20024;-71
2021/10/14 08:19:53;;;;;;;11.38;7.93;;;;;;;;;;5072669;28;20063;-71
2021/10/14 08:22:22;;;;;;;11.27;6.90;;;;;;;;;;5074688;28;20489;-69
2021/10/14 08:24:49;;;;;;;12.23;7.97;;;;;;;;;;5075006;28;20492;-71
2021/10/14 08:27:15;;;;;;;9.50;5.57;;;;;;;;;;5073564;28;20044;-71
2021/10/14 08:29:41;;;;;;;10.13;6.20;;;;;;;;;;5074533;28;20032;-70
2021/10/14 08:32:08;;;;;;;10.73;7.05;;;;;;;;;;5072792;28;20035;-70
2021/10/14 08:34:34;;;;;;;10.88;6.10;;;;;;;;;;5073424;28;20044;-69
2021/10/14 08:37:01;;;;;;;9.95;6.50;;;;;;;;;;5070846;28;20021;-70
2021/10/14 08:39:27;;;;;;;14.93;7.97;;;;;;;;;;5055713;28;20060;-71
2021/10/14 08:41:53;;;;;;;13.88;8.18;;;;;;;;;;5065144;28;20115;-69
2021/10/14 08:44:25;;;;;;;12.48;6.55;;;;;;;;;;5063705;28;20029;-70
2021/10/14 08:46:52;;;;;;;12.85;7.05;;;;;;;;;;5052619;28;20127;-68
2021/10/14 08:49:19;;;;;;;9.75;6.95;;;;;;;;;;5052224;28;20505;-69
2021/10/14 08:51:45;;;;;;;12.30;7.00;;;;;;;;;;5062190;28;20056;-69
2021/10/14 08:54:11;;;;;;;13.65;7.53;;;;;;;;;;5059324;28;20029;-70
2021/10/14 08:56:48;;;;;;;11.23;6.25;;;;;;;;;;5065962;28;20032;-71
2021/10/14 08:59:18;;;;;;;9.70;6.05;;;;;;;;;;5073560;28;20086;-70
2021/10/14 09:01:44;;;;;;;9.88;6.20;;;;;;;;;;5073740;28;20024;-70
2021/10/14 09:04:17;;;;;;;10.52;6.15;;;;;;;;;;5071981;28;20106;-70
2021/10/14 09:06:43;;;;;;;;;;;;;;;;;;5072852;28;20462;-71
2021/10/14 09:09:10;;;;;;;15.30;8.63;;;;;;;;;;5073595;28;19912;-69
2021/10/14 09:11:36;;;;;;;12.15;6.32;;;;;;;;;;5062530;28;20025;-71
2021/10/14 09:14:04;;;;;;;13.43;7.78;;;;;;;;;;5060593;28;20108;-70
2021/10/14 09:16:32;;;;;;;11.88;7.55;;;;;;;;;;5063854;28;20032;-70
2021/10/14 09:19:12;;;;;;;14.35;8.57;;;;;;;;;;5062337;28;20083;-69
2021/10/14 09:21:40;;;;;;;21.00;10.93;;;;;;;;;;5064761;28;20115;-69
2021/10/14 09:24:32;;;;;;;17.25;8.82;;;;;;;;;;5072983;28;20095;-68
2021/10/14 09:27:00;;;;;;;16.55;9.10;;;;;;;;;;5062857;28;20525;-71
2021/10/14 09:29:28;;;;;;;16.45;9.93;;;;;;;;;;5059765;28;20108;-70
2021/10/14 09:31:59;;;;;;;13.85;8.02;;;;;;;;;;5061120;28;20023;-70
2021/10/14 09:34:26;;;;;;;17.00;8.40;;;;;;;;;;5073404;28;20025;-69
2021/10/14 09:36:52;;;;;;;12.90;8.38;;;;;;;;;;5073341;28;20024;-71
2021/10/14 09:39:19;;;;;;;12.10;6.53;;;;;;;;;;5072539;28;20539;-69
2021/10/14 09:41:46;;;;;;;12.77;7.35;;;;;;;;;;5072423;28;20128;-69
2021/10/14 09:44:14;;;;;;;13.65;8.15;;;;;;;;;;5062175;28;20075;-69
2021/10/14 09:46:42;;;;;;;15.80;8.70;;;;;;;;;;5059506;28;20021;-70
2021/10/14 09:49:09;;;;;;;14.48;8.70;;;;;;;;;;5071800;28;20017;-71
2021/10/14 09:51:36;;;;;;;19.00;11.10;;;;;;;;;;5058177;28;20104;-69
2021/10/14 09:54:02;;;;;;;14.48;7.63;;;;;;;;;;5051532;28;20112;-70
2021/10/14 09:56:29;;;;;;;14.80;7.75;;;;;;;;;;5067144;28;20405;-70
2021/10/14 09:58:58;;;;;;;14.25;8.35;;;;;;;;;;5061010;28;20025;-68
2021/10/14 10:01:25;;;;;;;17.17;8.95;;;;;;;;;;5049128;28;20551;-69
2021/10/14 10:03:57;;;;;;;17.63;10.00;;;;;;;;;;5051555;28;20060;-70
2021/10/14 10:06:27;;;;;;;27.10;15.68;;;;;;;;;;5052097;28;20064;-70
2021/10/14 10:08:54;;;;;;;22.63;12.15;;;;;;;;;;5051646;28;20028;-70
2021/10/14 10:11:21;;;;;;;24.45;14.38;;;;;;;;;;5053096;28;20029;-70
2021/10/14 10:13:51;;;;;;;19.45;11.02;;;;;;;;;;5051230;28;20048;-71
2021/10/14 10:16:19;;;;;;;13.88;8.07;;;;;;;;;;5052993;28;20052;-69
2021/10/14 10:18:46;;;;;;;11.30;6.60;;;;;;;;;;5052771;28;20538;-71
2021/10/14 10:21:30;;;;;;;14.50;8.45;;;;;;;;;;5052599;28;20031;-68
2021/10/14 10:24:01;;;;;;;14.23;7.93;;;;;;;;;;5051041;28;20029;-70
2021/10/14 10:26:36;;;;;;;14.00;7.68;;;;;;;;;;5051102;28;20090;-70
2021/10/14 10:29:14;;;;;;;13.90;7.97;;;;;;;;;;5050310;28;20059;-71
2021/10/14 10:31:51;;;;;;;14.63;8.10;;;;;;;;;;5056959;28;20364;-71
2021/10/14 10:34:31;;;;;;;13.15;7.55;;;;;;;;;;5058795;28;20056;-72
2021/10/14 10:37:09;;;;;;;12.05;6.80;;;;;;;;;;5053342;28;20055;-72
2021/10/14 10:39:56;;;;;;;15.88;8.77;;;;;;;;;;5048677;28;20083;-71
2021/10/14 10:42:27;;;;;;;15.15;8.70;;;;;;;;;;5067497;28;20043;-70
2021/10/14 10:44:54;;;;;;;13.15;8.02;;;;;;;;;;5069579;28;20025;-70
2021/10/14 10:47:39;;;;;;;14.23;7.72;;;;;;;;;;5069383;28;20031;-72
2021/10/14 10:50:08;;;;;;;13.05;7.18;;;;;;;;;;5065427;28;20025;-74
2021/10/14 10:52:38;;;;;;;14.13;8.35;;;;;;;;;;5051272;28;20029;-72
2021/10/14 10:55:15;;;;;;;15.73;9.60;;;;;;;;;;5048068;28;20690;-73
2021/10/14 10:57:45;;;;;;;11.07;6.88;;;;;;;;;;5054801;28;20575;-74
2021/10/14 11:00:11;;;;;;;19.27;10.48;;;;;;;;;;5051979;28;20025;-74
2021/10/14 11:02:37;;;;;;;15.32;8.85;;;;;;;;;;5052402;28;20059;-73
2021/10/14 11:05:04;;;;;;;13.23;8.45;;;;;;;;;;5049267;28;20118;-73
2021/10/14 11:07:30;;;;;;;16.48;11.30;;;;;;;;;;5050544;28;20025;-72
2021/10/14 11:09:56;;;;;;;15.77;9.65;;;;;;;;;;5050129;28;20056;-71
2021/10/14 11:12:22;;;;;;;14.95;8.82;;;;;;;;;;5050487;28;20490;-70
2021/10/14 11:14:49;;;;;;;14.07;8.52;;;;;;;;;;5051346;28;20033;-71
2021/10/14 11:17:18;;;;;;;9.60;6.13;;;;;;;;;;5050369;28;20024;-71
2021/10/14 11:19:45;;;;;;;12.60;7.72;;;;;;;;;;5050791;28;20025;-71
2021/10/14 11:22:18;;;;;;;13.35;7.07;;;;;;;;;;5050991;28;20025;-71
2021/10/14 11:24:45;;;;;;;14.68;8.00;;;;;;;;;;5049392;28;20450;-72
2021/10/14 11:27:15;;;;;;;14.68;8.60;;;;;;;;;;5050755;28;20136;-72
2021/10/14 11:29:43;;;;;;;14.75;9.18;;;;;;;;;;5052462;28;20101;-70
2021/10/14 11:32:14;;;;;;;11.95;6.85;;;;;;;;;;5050957;28;20501;-70
2021/10/14 11:34:40;;;;;;;12.10;7.15;;;;;;;;;;5052357;28;20067;-71
2021/10/14 11:37:09;;;;;;;12.68;7.65;;;;;;;;;;5051330;28;20121;-73
2021/10/14 11:39:42;;;;;;;15.75;9.05;;;;;;;;;;5052018;28;20017;-73
2021/10/14 11:42:09;;;;;;;;;;;;;;;;;;5053364;28;20098;-70
2021/10/14 11:44:36;;;;;;;12.43;7.70;;;;;;;;;;5056744;28;19909;-70
2021/10/14 11:47:05;;;;;;;11.77;6.95;;;;;;;;;;5055861;28;20097;-73
2021/10/14 11:49:32;;;;;;;10.80;6.75;;;;;;;;;;5055428;28;20033;-70
2021/10/14 11:52:02;;;;;;;14.68;7.65;;;;;;;;;;5055155;28;20025;-73
2021/10/14 11:54:30;;;;;;;13.45;7.40;;;;;;;;;;5055102;28;20041;-72
2021/10/14 11:56:56;;;;;;;11.07;6.53;;;;;;;;;;5055851;28;20028;-71
2021/10/14 11:59:23;;;;;;;14.63;7.00;;;;;;;;;;5059306;28;20052;-70
2021/10/14 12:01:50;;;;;;;10.75;5.82;;;;;;;;;;5055047;28;20071;-73
2021/10/14 12:04:17;;;;;;;16.25;7.97;;;;;;;;;;5053774;28;20027;-75
2021/10/14 12:06:44;;;;;;;11.40;6.63;;;;;;;;;;5054758;28;20075;-72
2021/10/14 12:09:14;;;;;;;11.80;7.22;;;;;;;;;;5055447;28;20072;-72
2021/10/14 12:11:40;;;;;;;14.60;8.73;;;;;;;;;;5053958;28;20021;-69
2021/10/14 12:14:06;;;;;;;13.38;7.53;;;;;;;;;;5055758;28;20082;-72
2021/10/14 12:16:33;;;;;;;11.38;7.30;;;;;;;;;;5073789;28;20029;-72
2021/10/14 12:19:11;;;;;;;11.93;6.60;;;;;;;;;;5073631;28;20463;-71
2021/10/14 12:21:39;;;;;;;14.35;7.65;;;;;;;;;;5074819;28;20028;-73
2021/10/14 12:24:25;;;;;;;12.25;7.60;;;;;;;;;;5074681;28;20012;-71
2021/10/14 12:26:56;;;;;;;14.82;9.60;;;;;;;;;;5074570;28;20028;-70
2021/10/14 12:29:30;;;;;;;13.23;8.13;;;;;;;;;;5073386;28;20028;-72
2021/10/14 12:32:03;;;;;;;10.77;6.68;;;;;;;;;;5074856;28;20031;-70
2021/10/14 12:34:59;;;;;;;11.25;7.32;;;;;;;;;;5074078;28;20024;-71
2021/10/14 12:37:27;;;;;;;13.07;7.15;;;;;;;;;;5061762;28;20123;-71
2021/10/14 12:40:18;;;;;;;9.75;5.97;;;;;;;;;;5074942;28;20024;-71
2021/10/14 12:45:26;;;;;;;11.02;6.38;;;;;;;;;;5075182;28;20111;-72
2021/10/14 12:47:54;;;;;;;10.27;6.65;;;;;;;;;;5074113;28;20021;-73
2021/10/14 12:53:12;;;;;;;12.32;6.95;;;;;;;;;;5074065;28;20020;-72
2021/10/14 12:55:54;;;;;;;10.88;6.40;;;;;;;;;;5072729;28;20481;-72
2021/10/14 12:58:20;;;;;;;16.92;8.80;;;;;;;;;;5073729;28;20039;-72
2021/10/14 13:01:05;;;;;;;12.38;7.40;;;;;;;;;;5075122;28;20021;-73
2021/10/14 13:03:32;;;;;;;11.35;6.65;;;;;;;;;;5071097;28;20078;-76
2021/10/14 13:05:59;;;;;;;10.32;5.88;;;;;;;;;;5071254;28;20652;-74
2021/10/14 13:08:25;;;;;;;10.73;6.63;;;;;;;;;;5073177;28;20099;-75
2021/10/14 13:10:52;;;;;;;13.68;8.02;;;;;;;;;;5069220;28;20016;-73
2021/10/14 13:13:19;;;;;;;10.40;6.28;;;;;;;;;;5071389;28;20059;-73
2021/10/14 13:15:45;;;;;;;14.93;7.85;;;;;;;;;;5073233;28;20112;-73
2021/10/14 13:18:11;;;;;;;15.77;8.63;;;;;;;;;;5074235;28;20066;-73
2021/10/14 13:20:38;;;;;;;15.98;7.20;;;;;;;;;;5074604;28;20020;-73
2021/10/14 13:23:04;;;;;;;14.32;7.70;;;;;;;;;;5074164;28;20802;-75
2021/10/14 13:25:31;;;;;;;16.05;9.55;;;;;;;;;;5074554;28;20509;-72
2021/10/14 13:27:57;;;;;;;10.15;6.63;;;;;;;;;;5073225;28;20021;-73
2021/10/14 13:30:23;;;;;;;10.73;6.47;;;;;;;;;;5072667;28;20024;-73
2021/10/14 13:32:51;;;;;;;10.15;5.03;;;;;;;;;;5072913;28;20389;-73
2021/10/14 13:35:18;;;;;;;10.63;5.60;;;;;;;;;;5072757;28;20040;-73
2021/10/14 13:37:45;;;;;;;13.00;6.63;;;;;;;;;;5072551;28;20103;-74
2021/10/14 13:40:11;;;;;;;12.52;7.53;;;;;;;;;;5074103;28;20025;-73
2021/10/14 13:42:41;;;;;;;11.18;5.80;;;;;;;;;;5074125;28;20486;-74
2021/10/14 13:45:08;;;;;;;10.77;6.25;;;;;;;;;;5073738;28;20020;-73
2021/10/14 13:47:34;;;;;;;14.90;8.13;;;;;;;;;;5074133;28;20417;-74
2021/10/14 13:50:00;;;;;;;14.18;7.45;;;;;;;;;;5074047;28;20047;-74
2021/10/14 13:52:27;;;;;;;11.73;7.35;;;;;;;;;;5073311;28;20070;-74
2021/10/14 13:54:53;;;;;;;11.50;7.63;;;;;;;;;;5074174;28;20063;-75
2021/10/14 13:57:19;;;;;;;10.93;6.15;;;;;;;;;;5072922;28;20095;-75
2021/10/14 13:59:45;;;;;;;10.18;6.47;;;;;;;;;;5073674;28;20031;-74
2021/10/14 14:02:11;;;;;;;9.60;5.78;;;;;;;;;;5074015;28;20025;-74
2021/10/14 14:04:38;;;;;;;14.40;8.23;;;;;;;;;;5073260;28;20020;-74
2021/10/14 14:07:04;;;;;;;9.93;6.07;;;;;;;;;;5072299;28;20524;-75
2021/10/14 14:09:32;;;;;;;13.13;8.25;;;;;;;;;;5074097;28;20100;-74
2021/10/14 14:11:58;;;;;;;13.95;8.55;;;;;;;;;;5072257;28;20394;-74
2021/10/14 14:14:24;;;;;;;10.20;6.50;;;;;;;;;;5073781;28;20031;-74
2021/10/14 14:16:50;;;;;;;11.73;6.50;;;;;;;;;;5073748;28;20075;-75
2021/10/14 14:19:16;;;;;;;9.20;6.30;;;;;;;;;;5056412;28;20055;-74
2021/10/14 14:21:46;;;;;;;13.60;6.45;;;;;;;;;;5053273;28;20028;-74
2021/10/14 14:24:12;;;;;;;13.80;7.10;;;;;;;;;;5052226;28;20028;-73
2021/10/14 14:26:38;;;;;;;16.23;9.38;;;;;;;;;;5052992;28;20036;-74
2021/10/14 14:29:04;;;;;;;15.48;8.63;;;;;;;;;;5053419;28;20021;-73
2021/10/14 14:31:30;;;;;;;15.85;9.10;;;;;;;;;;5053503;28;20493;-73
2021/10/14 14:33:57;;;;;;;15.18;10.35;;;;;;;;;;5053382;28;20500;-74
2021/10/14 14:36:25;;;;;;;29.02;19.40;;;;;;;;;;5072117;28;20408;-75
2021/10/14 14:38:52;;;;;;;19.92;10.40;;;;;;;;;;5073584;28;20030;-75
2021/10/14 14:41:18;;;;;;;24.35;14.05;;;;;;;;;;5072818;28;20024;-74
2021/10/14 14:43:44;;;;;;;18.13;10.27;;;;;;;;;;5072955;28;20054;-75
2021/10/14 14:46:17;;;;;;;22.98;11.55;;;;;;;;;;5073032;28;20104;-74
2021/10/14 14:48:45;;;;;;;20.90;11.02;;;;;;;;;;5072843;28;20416;-74
2021/10/14 14:51:11;;;;;;;17.23;9.05;;;;;;;;;;5073209;28;20028;-75